Etusivu
METAR-TAF:

METAR-TAF

Lentoasemat :

Helsinki-Vantaan lentoasema

Helsinki, Suomi

Leveyspiiri: 60-19N, Pituuspiiri: 024-58E, korkeus merenpinnasta: 51 m

Tämänhetkinen sää

Tämä raportti tehtiin 39 minuuttia sitten, kello 08.50 UTC
Tuuli 16 kn lounaasta
Lämpötila 6°C
Kosteus 81%
Ilmanpaine 990 hPa
Näkyvyys 10 km tai enemmän
Hajonneita pilviä 2000 ft:n korkeudessa

METAR: EFHK 180850Z 23016KT 9999 BKN020 06/03 Q0990 NOSIG

Aika: 11:29 (09:29 UTC)

Sääennuste

Tämä raportti tehtiin 1 tunti ja 1 minuuttia sitten, kello 08.28 UTC
Ennuste voimassa 18. päivästä klo 09 UTC - 19. päivään klo 09 UTC
Tuuli 14 kn lounaasta
Näkyvyys 10 km tai enemmän
Hajonneita pilviä 2000 ft:n korkeudessa

TAF: EFHK 180828Z 1809/1909 23014KT 9999 BKN020

Säähavainnot ja -ennusteet yli 4000 lentoasemalta (METAR- ja TAF-raportit).

Käytössä olevat sääasemat on merkitty karttaan keltaisilla ja punaisilla pisteillä.

Aseta hiiri pisteen päälle nähdäksesi sääaseman nimen.

Klikkaa sitten nähdäksesi säähavainnot ja -ennusteet.

Kartan vaihtaminen: klikkaa mustalla rastilla varustettuja vihreitä pisteitä, niin voit zoomata sisään; viivalla varustettua vihreää pistettä, niin voit zoomata ulos tai vihreitä nuolia, niin pääset viereisille kartoille.


METAR-TAF: